CheckWX is a tool to help pilots better visualize weather data.  It is not intended as a substitute for an official pre-flight weather briefing.

12:23:03 UTC

DAUZ TAF
In Aménas Airport
Aménas, Algeria
TAF DAUZ 221100Z 2212/2312 27010KT CAVOK BECMG 2218/2222 36008KT BECMG 2306/2310 30010KT

Mar-22@
12:00 UTC

Mar-22 @ 12:00 UTC

Mar-22@
18:00 UTC

Mar-22 @ 18:00 UTC

TAF DAUZ 221100Z 2212/2312 27010KT CAVOK
Wind
  • 270° at 10 KTS
Conditions
No significant weather
Cloud Levels
  • No significant clouds

Mar-22@
18:00 UTC

Mar-22 @ 18:00 UTC

Mar-23@
06:00 UTC

Mar-23 @ 06:00 UTC

BECMG 2218/2222 36008KT

Becoming

Becoming Conditions expected by Fri, Mar 22, 2019 @ 22:00 UTC

Wind
  • 360° at 8 KTS
Conditions
No significant weather
Cloud Levels
  • No significant clouds

Mar-23@
06:00 UTC

Mar-23 @ 06:00 UTC

Mar-23@
12:00 UTC

Mar-23 @ 12:00 UTC

BECMG 2306/2310 30010KT

Becoming

Becoming Conditions expected by Sat, Mar 23, 2019 @ 10:00 UTC

Wind
  • 300° at 10 KTS
Conditions
No significant weather
Cloud Levels
  • No significant clouds